Time;durP1;ratioP1;P1;durP2;ratioP2;P2;SDS_P1;SDS_P2;PMS_P1;PMS_P2;Temp;Humidity;BMP_temperature;BMP_pressure;BME280_temperature;BME280_humidity;BME280_pressure;Samples;Min_cycle;Max_cycle;Signal;HPM_P1;HPM_P2
2022/05/27 00:01:51;;;;;;;20.27;6.68;;;14.10;99.90;;;;;;4992606;28;20042;-44
2022/05/27 00:04:17;;;;;;;21.23;6.95;;;13.40;99.90;;;;;;4993054;28;20113;-44
2022/05/27 00:06:42;;;;;;;21.00;6.03;;;13.20;99.90;;;;;;4993095;28;20050;-44
2022/05/27 00:09:08;;;;;;;19.08;5.47;;;13.20;99.90;;;;;;4993368;28;20046;-44
2022/05/27 00:11:34;;;;;;;15.35;4.63;;;13.30;99.90;;;;;;4993058;28;20773;-43
2022/05/27 00:14:00;;;;;;;20.10;4.55;;;13.20;99.90;;;;;;4993295;28;20052;-44
2022/05/27 00:16:28;;;;;;;15.93;4.40;;;13.20;99.90;;;;;;4992946;28;20050;-43
2022/05/27 00:18:54;;;;;;;18.38;5.47;;;13.70;99.90;;;;;;4993338;28;20041;-45
2022/05/27 00:21:21;;;;;;;15.77;4.18;;;13.40;99.90;;;;;;4993276;28;20394;-44
2022/05/27 00:23:46;;;;;;;15.15;4.10;;;13.00;99.90;;;;;;4993206;28;20049;-44
2022/05/27 00:26:12;;;;;;;20.10;5.00;;;13.20;99.90;;;;;;4993109;28;20038;-43
2022/05/27 00:28:38;;;;;;;18.83;4.60;;;13.00;99.90;;;;;;4993137;28;20390;-44
2022/05/27 00:31:05;;;;;;;17.85;5.07;;;13.00;99.90;;;;;;4992798;28;20043;-43
2022/05/27 00:33:32;;;;;;;21.17;4.45;;;13.30;99.90;;;;;;4992931;28;20557;-44
2022/05/27 00:35:57;;;;;;;19.10;4.97;;;12.90;99.90;;;;;;4993076;28;20090;-44
2022/05/27 00:38:23;;;;;;;13.23;4.85;;;12.90;99.90;;;;;;4992755;28;20081;-44
2022/05/27 00:40:55;;;;;;;19.75;5.97;;;12.90;99.90;;;;;;4992944;28;20043;-43
2022/05/27 00:43:21;;;;;;;17.83;5.22;;;12.70;99.90;;;;;;4992843;28;20046;-43
2022/05/27 00:45:57;;;;;;;20.15;5.90;;;12.80;99.90;;;;;;4992572;28;20389;-43
2022/05/27 00:48:23;;;;;;;21.13;5.38;;;12.80;99.90;;;;;;5024174;28;20053;-44
2022/05/27 00:50:50;;;;;;;24.45;6.38;;;12.80;99.90;;;;;;4992781;28;20089;-43
2022/05/27 00:53:33;;;;;;;19.83;6.03;;;12.80;99.90;;;;;;4992879;28;20038;-43
2022/05/27 00:56:02;;;;;;;27.10;6.72;;;12.80;99.90;;;;;;4991178;28;20073;-43
2022/05/27 00:58:33;;;;;;;24.70;5.85;;;12.80;99.90;;;;;;4992962;28;20081;-43
2022/05/27 01:01:00;;;;;;;19.88;6.63;;;12.80;99.90;;;;;;4992726;28;20054;-43
2022/05/27 01:03:29;;;;;;;16.73;5.63;;;12.80;99.90;;;;;;4992667;28;20554;-43
2022/05/27 01:05:54;;;;;;;23.38;7.03;;;12.80;99.90;;;;;;4992706;28;20501;-45
2022/05/27 01:08:22;;;;;;;26.77;6.15;;;13.50;99.90;;;;;;4992729;28;20038;-43
2022/05/27 01:11:01;;;;;;;20.55;6.53;;;12.80;99.90;;;;;;4993017;28;20046;-43
2022/05/27 01:13:51;;;;;;;24.40;5.78;;;12.70;99.90;;;;;;4996558;28;20125;-44
2022/05/27 01:16:49;;;;;;;19.52;5.88;;;12.50;99.90;;;;;;4996459;28;20393;-43
2022/05/27 01:23:05;;;;;;;27.75;7.38;;;12.20;99.90;;;;;;4996857;28;20061;-43
2022/05/27 01:25:49;;;;;;;19.88;5.50;;;12.10;99.90;;;;;;4996608;28;20046;-43
2022/05/27 01:28:35;;;;;;;15.48;5.60;;;12.00;99.90;;;;;;4996098;28;20042;-43
2022/05/27 01:31:43;;;;;;;24.73;6.55;;;11.90;99.90;;;;;;4996204;28;20042;-44
2022/05/27 01:34:34;;;;;;;21.35;5.50;;;11.80;99.90;;;;;;4996258;28;20442;-43
2022/05/27 01:37:25;;;;;;;19.33;5.82;;;11.70;99.90;;;;;;4996443;28;20042;-43
2022/05/27 01:40:06;;;;;;;28.35;6.85;;;11.70;99.90;;;;;;4995796;28;20073;-43
2022/05/27 01:42:48;;;;;;;25.10;5.40;;;11.60;99.90;;;;;;4996331;28;20057;-44
2022/05/27 01:45:28;;;;;;;18.98;5.70;;;11.60;99.90;;;;;;4996275;28;20063;-44
2022/05/27 01:48:03;;;;;;;23.27;5.40;;;11.50;99.90;;;;;;4995928;28;20489;-43
2022/05/27 01:50:36;;;;;;;23.05;7.38;;;11.40;99.90;;;;;;4995870;28;20104;-44
2022/05/27 01:53:17;;;;;;;18.40;5.53;;;11.50;99.90;;;;;;4994723;28;20129;-43
2022/05/27 01:55:55;;;;;;;18.45;6.28;;;11.50;99.90;;;;;;4995540;28;20047;-43
2022/05/27 01:58:31;;;;;;;34.28;6.60;;;11.40;99.90;;;;;;4995834;28;20125;-43
2022/05/27 02:00:57;;;;;;;22.75;5.45;;;11.30;99.90;;;;;;4995739;28;20034;-44
2022/05/27 02:03:33;;;;;;;24.88;6.60;;;11.20;99.90;;;;;;4995708;28;20503;-44
2022/05/27 02:06:05;;;;;;;31.60;6.22;;;11.40;99.90;;;;;;4995650;28;20476;-44
2022/05/27 02:08:50;;;;;;;28.05;6.45;;;11.50;99.90;;;;;;4995772;28;20100;-44
2022/05/27 02:11:19;;;;;;;41.33;6.82;;;11.30;99.90;;;;;;4995721;28;20386;-44
2022/05/27 02:14:00;;;;;;;29.33;6.10;;;11.30;99.90;;;;;;4995365;28;20039;-44
2022/05/27 02:16:52;;;;;;;24.85;6.53;;;11.30;99.90;;;;;;4995455;28;20042;-44
2022/05/27 02:19:59;;;;;;;26.88;5.55;;;11.20;99.90;;;;;;4995029;28;20053;-44
2022/05/27 02:22:30;;;;;;;23.27;6.00;;;11.20;99.90;;;;;;4972033;28;20121;-44
2022/05/27 02:25:05;;;;;;;32.90;6.35;;;11.70;99.90;;;;;;4995064;28;20562;-44
2022/05/27 02:27:45;;;;;;;32.22;6.07;;;11.10;99.90;;;;;;4993613;28;20065;-44
2022/05/27 02:30:13;;;;;;;26.58;6.88;;;11.10;99.90;;;;;;4995203;28;20085;-46
2022/05/27 02:32:45;;;;;;;36.92;7.10;;;11.30;99.90;;;;;;4994750;28;20129;-44
2022/05/27 02:35:30;;;;;;;36.08;7.03;;;10.90;99.90;;;;;;4995052;28;20038;-44
2022/05/27 02:37:59;;;;;;;21.98;5.10;;;10.70;99.90;;;;;;4994609;28;20386;-44
2022/05/27 02:40:36;;;;;;;24.70;5.30;;;11.70;99.90;;;;;;4994150;28;20477;-43
2022/05/27 02:43:31;;;;;;;16.25;5.13;;;10.60;99.90;;;;;;4994568;28;20034;-43
2022/05/27 02:46:15;;;;;;;26.50;5.35;;;10.50;99.90;;;;;;4992114;28;20050;-44
2022/05/27 02:48:49;;;;;;;24.00;5.85;;;10.50;99.90;;;;;;4994749;28;20442;-44
2022/05/27 02:51:15;;;;;;;25.98;5.82;;;10.40;99.90;;;;;;4994213;28;20061;-44
2022/05/27 02:53:50;;;;;;;29.52;6.45;;;10.90;99.90;;;;;;4994604;28;20042;-44
2022/05/27 02:56:26;;;;;;;45.25;5.85;;;10.30;99.90;;;;;;4994091;28;20133;-44
2022/05/27 02:58:54;;;;;;;37.67;6.32;;;10.30;99.90;;;;;;4994799;28;20042;-44
2022/05/27 03:01:20;;;;;;;37.58;6.40;;;10.60;99.90;;;;;;4994662;28;20389;-44
2022/05/27 03:03:46;;;;;;;27.85;6.70;;;10.60;99.90;;;;;;4994873;28;20042;-44
2022/05/27 03:06:23;;;;;;;41.10;7.40;;;10.70;99.90;;;;;;4994525;28;20560;-44
2022/05/27 03:08:54;;;;;;;32.40;6.40;;;10.30;99.90;;;;;;4993182;28;20105;-44
2022/05/27 03:11:49;;;;;;;27.85;5.70;;;10.50;99.90;;;;;;4993961;28;20128;-44
2022/05/27 03:14:42;;;;;;;30.77;6.60;;;10.30;99.90;;;;;;4994333;28;20042;-43
2022/05/27 03:17:32;;;;;;;29.52;6.40;;;10.70;99.90;;;;;;4994334;28;20498;-44
2022/05/27 03:20:10;;;;;;;35.80;6.72;;;10.40;99.90;;;;;;4994331;28;20160;-43
2022/05/27 03:22:49;;;;;;;29.33;6.70;;;10.40;99.90;;;;;;4993861;28;20034;-44
2022/05/27 03:25:35;;;;;;;29.65;5.50;;;10.90;99.90;;;;;;4993932;28;20446;-44
2022/05/27 03:28:14;;;;;;;30.60;6.07;;;10.40;99.90;;;;;;4994121;28;20350;-43
2022/05/27 03:31:05;;;;;;;26.27;6.80;;;10.30;99.90;;;;;;4993791;28;20100;-43
2022/05/27 03:33:57;;;;;;;36.72;6.15;;;10.30;99.90;;;;;;4993828;28;20113;-44
2022/05/27 03:36:49;;;;;;;25.13;6.28;;;10.30;99.90;;;;;;4992664;28;20038;-44
2022/05/27 03:39:34;;;;;;;28.10;6.05;;;10.50;99.90;;;;;;4992994;28;20058;-43
2022/05/27 03:42:03;;;;;;;27.77;6.47;;;10.40;99.90;;;;;;4993713;28;20146;-44
2022/05/27 03:44:30;;;;;;;33.72;6.07;;;10.40;99.90;;;;;;4993513;28;20546;-44
2022/05/27 03:46:58;;;;;;;31.23;6.97;;;10.80;99.90;;;;;;4993920;28;20139;-44
2022/05/27 03:49:24;;;;;;;34.17;7.80;;;10.90;99.90;;;;;;4993357;28;20045;-44
2022/05/27 03:52:03;;;;;;;32.88;7.63;;;10.70;99.90;;;;;;4993660;28;20030;-45
2022/05/27 03:54:29;;;;;;;29.60;7.57;;;10.60;99.90;;;;;;4993407;28;20058;-43
2022/05/27 03:56:55;;;;;;;33.35;7.68;;;11.50;99.90;;;;;;4993664;28;20097;-43
2022/05/27 03:59:22;;;;;;;28.33;6.45;;;10.90;99.90;;;;;;4993262;28;20129;-45
2022/05/27 04:01:51;;;;;;;23.00;7.20;;;11.10;99.90;;;;;;4993339;28;20093;-44
2022/05/27 04:04:20;;;;;;;37.38;7.53;;;11.30;99.90;;;;;;4993316;28;20508;-44
2022/05/27 04:06:48;;;;;;;37.42;6.75;;;11.50;99.90;;;;;;4992014;28;20042;-43
2022/05/27 04:09:19;;;;;;;30.65;7.05;;;11.50;99.90;;;;;;4993344;28;20057;-44
2022/05/27 04:11:45;;;;;;;28.88;6.90;;;12.10;99.90;;;;;;4993474;28;20050;-44
2022/05/27 04:14:11;;;;;;;32.40;7.07;;;11.60;99.90;;;;;;4993351;28;20541;-44
2022/05/27 04:16:38;;;;;;;18.80;5.75;;;12.20;99.90;;;;;;4993052;28;20450;-43
2022/05/27 04:19:04;;;;;;;35.05;8.50;;;11.80;99.90;;;;;;4993258;28;20038;-44
2022/05/27 04:21:29;;;;;;;25.75;6.30;;;12.10;99.90;;;;;;4993027;28;20553;-44
2022/05/27 04:23:55;;;;;;;32.28;6.22;;;11.70;99.90;;;;;;4992829;28;20054;-44
2022/05/27 04:26:21;;;;;;;30.27;5.60;;;11.60;99.90;;;;;;4991738;28;20050;-44
2022/05/27 04:28:47;;;;;;;17.13;4.22;;;11.60;99.90;;;;;;4992750;28;20050;-43
2022/05/27 04:31:13;;;;;;;21.52;4.13;;;11.60;99.90;;;;;;4992605;28;20047;-44
2022/05/27 04:33:39;;;;;;;21.55;5.20;;;12.50;99.90;;;;;;4992709;28;20034;-43
2022/05/27 04:36:06;;;;;;;18.77;4.15;;;12.20;99.90;;;;;;4993119;28;20538;-44
2022/05/27 04:38:32;;;;;;;22.45;4.15;;;11.60;99.90;;;;;;4992553;28;20039;-44
2022/05/27 04:40:58;;;;;;;24.50;3.75;;;11.50;99.90;;;;;;4992932;28;20042;-44
2022/05/27 04:43:24;;;;;;;16.70;3.78;;;11.40;99.90;;;;;;4992951;28;20643;-43
2022/05/27 04:45:50;;;;;;;18.67;4.07;;;11.40;99.90;;;;;;4993180;28;20046;-43
2022/05/27 04:48:18;;;;;;;20.00;4.10;;;11.40;99.90;;;;;;4997140;28;20039;-44
2022/05/27 04:50:44;;;;;;;18.67;4.40;;;11.40;99.90;;;;;;4996613;28;20046;-43
2022/05/27 04:53:10;;;;;;;19.83;4.15;;;11.40;99.90;;;;;;4996760;28;20089;-44
2022/05/27 04:55:38;;;;;;;22.60;4.60;;;11.50;99.90;;;;;;4996357;28;20406;-43
2022/05/27 04:58:04;;;;;;;19.98;3.85;;;12.30;99.90;;;;;;4996770;28;20042;-43
2022/05/27 05:00:36;;;;;;;22.10;4.07;;;11.60;99.90;;;;;;4996880;28;20115;-44
2022/05/27 05:03:02;;;;;;;20.83;3.97;;;11.70;99.90;;;;;;4996534;28;20049;-43
2022/05/27 05:05:30;;;;;;;15.10;4.07;;;11.80;99.90;;;;;;4996379;28;20494;-44
2022/05/27 05:08:05;;;;;;;17.67;3.58;;;11.90;99.90;;;;;;4996730;28;20075;-44
2022/05/27 05:10:31;;;;;;;22.15;3.35;;;11.90;99.90;;;;;;4996587;28;20129;-44
2022/05/27 05:12:57;;;;;;;21.85;3.55;;;11.90;99.90;;;;;;4996286;28;20049;-45
2022/05/27 05:15:25;;;;;;;20.25;3.20;;;12.10;99.90;;;;;;4996513;28;20146;-44
2022/05/27 05:17:51;;;;;;;19.80;4.07;;;11.90;99.90;;;;;;4996172;28;20046;-43
2022/05/27 05:20:22;;;;;;;15.73;3.13;;;12.00;99.90;;;;;;4996202;28;20046;-43
2022/05/27 05:22:47;;;;;;;26.58;3.90;;;11.90;99.90;;;;;;4995853;28;20050;-43
2022/05/27 05:25:13;;;;;;;15.82;2.95;;;12.00;99.90;;;;;;4996079;28;20057;-44
2022/05/27 05:27:41;;;;;;;23.05;2.70;;;11.80;99.90;;;;;;4996237;28;20093;-43
2022/05/27 05:30:09;;;;;;;15.68;2.95;;;12.00;99.90;;;;;;4996191;28;20117;-44
2022/05/27 05:32:35;;;;;;;22.30;2.97;;;12.10;99.90;;;;;;4996227;28;20390;-44
2022/05/27 05:35:00;;;;;;;26.58;3.83;;;12.50;99.90;;;;;;4996385;28;20042;-44
2022/05/27 05:37:27;;;;;;;16.48;3.50;;;;;;;;;;4995741;28;20061;-44
2022/05/27 05:39:52;;;;;;;21.70;2.65;;;13.00;99.90;;;;;;4996139;28;20046;-43
2022/05/27 05:42:19;;;;;;;16.90;3.90;;;13.10;99.90;;;;;;4995985;28;20409;-46
2022/05/27 05:44:45;;;;;;;17.55;3.00;;;13.10;99.90;;;;;;4996129;28;20046;-44
2022/05/27 05:47:11;;;;;;;12.57;2.33;;;13.00;99.90;;;;;;4995813;28;20042;-44
2022/05/27 05:49:37;;;;;;;13.93;2.50;;;13.00;99.90;;;;;;4995934;28;20046;-43
2022/05/27 05:52:04;;;;;;;19.40;2.72;;;13.30;99.90;;;;;;4995969;28;20050;-44
2022/05/27 05:54:30;;;;;;;21.08;3.15;;;13.30;99.90;;;;;;4995972;28;20061;-47
2022/05/27 05:57:00;;;;;;;14.35;2.40;;;13.60;99.90;;;;;;4995793;28;20050;-47
2022/05/27 05:59:32;;;;;;;10.65;2.03;;;13.80;99.90;;;;;;4994050;28;20038;-44
2022/05/27 06:01:59;;;;;;;17.42;2.10;;;13.60;99.90;;;;;;4994290;28;20840;-48
2022/05/27 06:04:25;;;;;;;14.60;2.40;;;13.50;99.90;;;;;;4994529;28;20557;-46
2022/05/27 06:06:57;;;;;;;15.13;2.25;;;13.40;99.90;;;;;;4994839;28;20070;-44
2022/05/27 06:09:25;;;;;;;14.15;1.90;;;14.80;99.90;;;;;;4995149;28;20086;-44
2022/05/27 06:11:53;;;;;;;11.00;2.00;;;15.00;99.90;;;;;;4995438;28;20125;-44
2022/05/27 06:14:18;;;;;;;16.15;2.72;;;16.30;99.90;;;;;;5026837;28;20046;-44
2022/05/27 06:16:44;;;;;;;11.77;2.10;;;16.20;99.90;;;;;;4995320;28;20050;-45
2022/05/27 06:19:10;;;;;;;10.60;1.67;;;16.30;99.90;;;;;;4995456;28;20493;-45
2022/05/27 06:21:35;;;;;;;12.35;2.50;;;16.00;99.90;;;;;;4995536;28;20510;-43
2022/05/27 06:24:01;;;;;;;13.35;2.00;;;15.80;99.90;;;;;;4994648;28;20049;-43
2022/05/27 06:26:27;;;;;;;14.60;2.15;;;15.80;99.90;;;;;;4995324;28;20125;-44
2022/05/27 06:34:25;;;;;;;10.00;1.50;;;17.20;99.90;;;;;;4995236;28;20085;-44
2022/05/27 06:36:56;;;;;;;14.15;2.55;;;18.10;99.90;;;;;;4993642;28;20046;-44
2022/05/27 06:39:23;;;;;;;11.27;1.27;;;18.30;99.90;;;;;;4995014;28;20047;-44
2022/05/27 06:41:52;;;;;;;10.43;2.22;;;18.70;99.90;;;;;;4993340;28;20042;-45
2022/05/27 06:44:19;;;;;;;25.08;1.90;;;20.10;99.90;;;;;;4994854;28;20042;-44
2022/05/27 06:46:45;;;;;;;7.32;1.35;;;21.30;99.90;;;;;;4993333;28;20054;-44
2022/05/27 06:49:12;;;;;;;11.75;1.85;;;22.00;99.90;;;;;;4994114;28;20125;-44
2022/05/27 06:51:39;;;;;;;10.23;1.55;;;23.10;98.30;;;;;;4994400;28;20053;-44
2022/05/27 06:54:06;;;;;;;7.50;1.70;;;;;;;;;;4994371;28;20038;-44
2022/05/27 06:56:37;;;;;;;9.60;1.58;;;24.70;90.60;;;;;;4994454;28;20046;-44
2022/05/27 06:59:04;;;;;;;6.60;1.45;;;25.50;85.30;;;;;;4994241;28;20039;-44
2022/05/27 07:01:30;;;;;;;12.60;1.42;;;25.50;85.10;;;;;;4994356;28;20124;-44
2022/05/27 07:03:56;;;;;;;8.27;1.58;;;26.70;81.40;;;;;;4994148;28;20121;-44
2022/05/27 07:06:28;;;;;;;13.65;2.00;;;26.80;79.00;;;;;;4994519;28;20038;-44
2022/05/27 07:08:54;;;;;;;12.80;1.70;;;25.30;75.90;;;;;;4994151;28;20117;-44
2022/05/27 07:11:20;;;;;;;8.70;2.20;;;25.10;75.80;;;;;;4994475;28;20121;-44
2022/05/27 07:13:45;;;;;;;11.35;1.80;;;23.50;77.30;;;;;;4994056;28;20051;-44
2022/05/27 07:16:11;;;;;;;10.20;1.50;;;23.90;75.00;;;;;;4994447;28;20102;-43
2022/05/27 07:18:37;;;;;;;8.32;1.58;;;24.60;74.70;;;;;;4994056;28;20034;-44
2022/05/27 07:21:05;;;;;;;7.93;1.13;;;23.40;75.60;;;;;;4994043;28;20424;-43
2022/05/27 07:23:32;;;;;;;10.63;2.33;;;23.20;73.20;;;;;;4993832;28;20053;-44
2022/05/27 07:25:58;;;;;;;7.93;1.30;;;24.80;72.20;;;;;;4994048;28;20046;-44
2022/05/27 07:28:24;;;;;;;8.30;0.85;;;25.00;71.10;;;;;;4993587;28;20038;-45
2022/05/27 07:30:51;;;;;;;5.78;1.05;;;25.00;69.40;;;;;;4993800;28;20038;-44
2022/05/27 07:33:17;;;;;;;10.48;1.65;;;26.10;67.10;;;;;;4993925;28;20513;-43
2022/05/27 07:35:43;;;;;;;12.10;1.20;;;27.10;64.90;;;;;;4993847;28;20117;-44
2022/05/27 07:38:08;;;;;;;10.68;1.80;;;27.70;63.20;;;;;;4993794;28;20486;-43
2022/05/27 07:40:34;;;;;;;7.13;1.33;;;26.60;63.00;;;;;;4993563;28;20038;-44
2022/05/27 07:43:00;;;;;;;5.55;0.82;;;26.00;60.80;;;;;;4993600;28;20050;-43
2022/05/27 07:45:29;;;;;;;4.50;1.10;;;25.10;64.90;;;;;;4993498;28;20046;-44
2022/05/27 07:47:55;;;;;;;9.30;1.60;;;25.90;61.70;;;;;;4993526;28;20053;-43
2022/05/27 07:50:22;;;;;;;10.80;1.50;;;27.10;62.30;;;;;;4993894;28;20038;-45
2022/05/27 07:52:48;;;;;;;8.07;1.42;;;26.50;60.70;;;;;;4993526;28;20080;-44
2022/05/27 07:55:14;;;;;;;7.35;1.13;;;28.60;61.30;;;;;;4993271;28;20046;-43
2022/05/27 07:57:48;;;;;;;9.43;1.50;;;28.70;58.70;;;;;;4993468;28;20054;-44
2022/05/27 08:00:27;;;;;;;10.45;1.48;;;29.80;57.90;;;;;;4993193;28;20038;-44
2022/05/27 08:02:52;;;;;;;7.30;1.83;;;30.10;56.60;;;;;;4993547;28;20054;-44
2022/05/27 08:05:24;;;;;;;9.02;1.60;;;30.60;54.50;;;;;;4993306;28;20068;-44
2022/05/27 08:07:52;;;;;;;6.25;0.98;;;30.80;52.90;;;;;;4993071;28;20410;-44
2022/05/27 08:10:21;;;;;;;9.40;1.10;;;30.60;51.80;;;;;;4993022;28;20409;-43
2022/05/27 08:12:46;;;;;;;6.50;1.10;;;29.50;51.10;;;;;;4993210;28;20077;-44
2022/05/27 08:15:14;;;;;;;7.72;1.50;;;28.10;51.20;;;;;;4993200;28;20370;-43
2022/05/27 08:17:40;;;;;;;10.57;1.30;;;26.90;53.10;;;;;;4992991;28;20057;-43
2022/05/27 08:20:08;;;;;;;9.10;1.45;;;26.60;53.50;;;;;;4992974;28;20034;-44
2022/05/27 08:22:34;;;;;;;6.55;1.08;;;26.10;54.50;;;;;;4991929;28;20062;-43
2022/05/27 08:25:00;;;;;;;8.23;1.55;;;26.70;55.10;;;;;;4992816;28;20137;-44
2022/05/27 08:27:26;;;;;;;10.02;2.10;;;27.30;54.80;;;;;;4992930;28;20058;-44
2022/05/27 08:29:52;;;;;;;9.43;2.00;;;26.90;53.90;;;;;;4992435;28;20046;-44
2022/05/27 08:32:18;;;;;;;5.75;1.10;;;26.20;52.70;;;;;;4992715;28;20050;-45
2022/05/27 08:40:33;;;;;;;6.43;1.55;;;28.80;53.30;;;;;;4992416;28;20129;-44
2022/05/27 08:43:09;;;;;;;6.70;1.20;;;30.00;53.20;;;;;;4992262;28;20100;-44
2022/05/27 08:45:43;;;;;;;6.30;0.80;;;30.00;51.10;;;;;;4992655;28;20046;-44
2022/05/27 08:48:11;;;;;;;6.00;1.20;;;28.40;49.50;;;;;;4992582;28;20108;-45
2022/05/27 08:50:37;;;;;;;7.47;1.50;;;26.60;51.70;;;;;;4992474;28;20046;-44
2022/05/27 08:53:30;;;;;;;5.18;0.70;;;25.70;52.80;;;;;;4991535;28;20053;-44
2022/05/27 09:01:42;;;;;;;8.48;1.20;;;27.10;53.60;;;;;;4991990;28;20132;-44
2022/05/27 09:04:30;;;;;;;6.78;0.90;;;28.10;52.50;;;;;;4991631;28;20188;-44
2022/05/27 09:07:06;;;;;;;6.05;1.05;;;29.00;52.20;;;;;;4991593;28;20050;-44
2022/05/27 09:09:33;;;;;;;6.13;1.00;;;29.70;50.10;;;;;;4991384;28;20042;-44
2022/05/27 09:12:28;;;;;;;8.07;1.65;;;29.70;48.70;;;;;;4991617;28;20050;-44
2022/05/27 09:15:13;;;;;;;4.55;0.90;;;29.20;47.80;;;;;;4986005;28;20046;-45
2022/05/27 09:17:51;;;;;;;6.70;1.25;;;28.80;47.80;;;;;;4991974;28;20054;-44
2022/05/27 09:20:26;;;;;;;5.47;0.90;;;28.40;48.40;;;;;;4992087;28;20046;-44
2022/05/27 09:23:12;;;;;;;9.18;1.90;;;27.90;49.40;;;;;;4991821;28;20061;-44
2022/05/27 09:26:08;;;;;;;8.60;1.70;;;27.90;49.20;;;;;;4991980;28;20042;-44
2022/05/27 09:29:17;;;;;;;11.13;1.65;;;27.40;49.20;;;;;;4974418;28;20113;-45
2022/05/27 09:31:49;;;;;;;4.03;1.17;;;27.80;51.10;;;;;;4972528;28;20142;-44
2022/05/27 09:34:15;;;;;;;4.95;1.35;;;28.20;49.90;;;;;;4995529;28;20050;-44
2022/05/27 09:36:53;;;;;;;9.45;1.67;;;29.00;49.20;;;;;;4995289;28;20121;-44
2022/05/27 09:39:21;;;;;;;6.28;1.30;;;29.90;47.30;;;;;;4995690;28;20041;-44
2022/05/27 09:42:06;;;;;;;5.18;0.85;;;30.20;47.00;;;;;;4994986;28;20046;-44
2022/05/27 09:44:41;;;;;;;5.50;0.88;;;29.70;45.90;;;;;;4995478;28;20124;-45
2022/05/27 09:47:07;;;;;;;5.40;1.00;;;29.20;46.10;;;;;;4994728;28;20042;-44
2022/05/27 09:49:34;;;;;;;5.95;0.80;;;29.80;46.70;;;;;;4995102;28;20057;-45
2022/05/27 09:52:01;;;;;;;8.00;1.02;;;30.70;45.70;;;;;;4995011;28;20054;-44
2022/05/27 09:54:34;;;;;;;5.82;1.10;;;29.90;44.90;;;;;;4995030;28;20043;-44
2022/05/27 09:57:13;;;;;;;6.40;1.25;;;29.30;45.10;;;;;;4994695;28;20529;-44
2022/05/27 09:59:41;;;;;;;4.95;0.82;;;29.30;46.30;;;;;;4994963;28;20045;-44
2022/05/27 10:02:21;;;;;;;8.63;1.65;;;29.80;46.40;;;;;;4994996;28;20397;-44
2022/05/27 10:05:00;;;;;;;8.30;1.02;;;30.50;44.80;;;;;;4993399;28;20515;-43
2022/05/27 10:07:40;;;;;;;5.60;0.70;;;30.80;44.40;;;;;;4994884;28;20042;-44
2022/05/27 10:10:29;;;;;;;4.75;1.02;;;29.80;68.70;;;;;;4994962;28;20544;-44
2022/05/27 10:13:13;;;;;;;4.93;1.08;;;29.70;43.20;;;;;;4994973;28;20516;-44
2022/05/27 10:15:39;;;;;;;5.55;0.95;;;28.00;45.10;;;;;;4994953;28;20053;-45
2022/05/27 10:18:18;;;;;;;6.63;1.15;;;26.50;46.20;;;;;;4995010;28;20042;-44
2022/05/27 10:20:50;;;;;;;7.57;1.40;;;25.50;48.30;;;;;;4994026;28;20516;-44
2022/05/27 10:23:35;;;;;;;6.97;1.95;;;24.70;49.40;;;;;;4994788;28;20045;-45
2022/05/27 10:26:19;;;;;;;7.40;1.08;;;24.00;50.20;;;;;;4994551;28;20060;-44
2022/05/27 10:28:56;;;;;;;5.00;1.23;;;23.00;51.70;;;;;;4994356;28;20046;-44
2022/05/27 10:31:24;;;;;;;7.60;1.35;;;22.50;55.60;;;;;;4993936;28;20121;-44
2022/05/27 10:33:50;;;;;;;6.78;1.00;;;23.20;55.60;;;;;;4992401;28;20561;-45
2022/05/27 10:36:40;;;;;;;8.73;0.88;;;24.20;53.60;;;;;;4994658;28;20046;-44
2022/05/27 10:39:17;;;;;;;9.50;0.95;;;24.50;51.60;;;;;;4994050;28;20100;-44
2022/05/27 10:42:07;;;;;;;7.70;0.95;;;25.30;51.50;;;;;;4994727;28;20046;-44
2022/05/27 10:44:50;;;;;;;8.13;0.95;;;26.10;50.50;;;;;;4993656;28;20042;-45
2022/05/27 10:47:48;;;;;;;5.22;0.88;;;26.00;48.80;;;;;;4994118;28;20061;-44
2022/05/27 10:50:17;;;;;;;7.57;1.20;;;25.20;49.40;;;;;;4985825;28;20092;-44
2022/05/27 10:53:06;;;;;;;7.97;1.60;;;24.20;50.90;;;;;;4993902;28;20042;-44
2022/05/27 10:55:57;;;;;;;9.68;0.85;;;23.40;52.30;;;;;;4992862;28;20065;-45
2022/05/27 11:04:40;;;;;;;9.70;0.82;;;21.20;57.90;;;;;;4984556;28;20054;-44
2022/05/27 11:07:11;;;;;;;6.28;0.75;;;20.90;59.00;;;;;;4993608;28;20054;-44
2022/05/27 11:10:27;;;;;;;6.95;1.38;;;20.70;59.60;;;;;;4993254;28;20124;-45
2022/05/27 11:16:14;;;;;;;9.88;1.00;;;20.20;59.50;;;;;;4993282;28;20137;-44
2022/05/27 11:19:12;;;;;;;8.50;1.05;;;19.90;60.00;;;;;;4993371;28;20053;-44
2022/05/27 11:21:58;;;;;;;9.43;1.33;;;19.60;60.00;;;;;;4992791;28;20137;-44
2022/05/27 11:24:42;;;;;;;8.88;1.60;;;19.40;61.10;;;;;;5027394;28;20548;-44
2022/05/27 11:27:34;;;;;;;6.35;0.60;;;19.40;61.70;;;;;;5032442;28;20128;-44
2022/05/27 11:30:17;;;;;;;8.73;1.80;;;19.70;62.90;;;;;;5032248;28;20497;-45
2022/05/27 11:32:43;;;;;;;11.10;1.40;;;19.90;63.00;;;;;;5030867;28;20336;-44
2022/05/27 11:35:53;;;;;;;7.90;1.60;;;19.80;62.90;;;;;;5032214;28;20515;-44
2022/05/27 11:38:31;;;;;;;10.85;1.30;;;19.50;62.60;;;;;;4990241;28;20034;-45
2022/05/27 11:41:03;;;;;;;4.60;0.85;;;;;;;;;;4990397;28;20048;-44
2022/05/27 11:44:06;;;;;;;9.02;1.40;;;18.80;63.10;;;;;;5014722;28;20057;-44
2022/05/27 11:46:50;;;;;;;9.35;1.00;;;18.60;63.90;;;;;;5031931;28;20473;-44
2022/05/27 11:49:46;;;;;;;8.27;1.17;;;18.20;64.00;;;;;;5032178;28;20041;-45
2022/05/27 11:52:17;;;;;;;7.85;1.45;;;18.00;65.40;;;;;;5032336;28;20112;-45
2022/05/27 11:55:01;;;;;;;9.53;1.70;;;17.90;66.00;;;;;;5032235;28;20041;-44
2022/05/27 11:57:52;;;;;;;7.80;1.02;;;18.10;66.70;;;;;;5031494;28;20632;-44
2022/05/27 12:00:22;;;;;;;11.88;1.15;;;18.40;68.20;;;;;;5031728;28;20045;-45
2022/05/27 12:03:17;;;;;;;7.25;1.10;;;18.60;68.70;;;;;;5032165;28;20041;-45
2022/05/27 12:05:54;;;;;;;8.25;1.02;;;18.80;67.20;;;;;;5017072;28;20078;-44
2022/05/27 12:08:24;;;;;;;5.95;0.93;;;18.80;65.70;;;;;;5032162;28;20095;-43
2022/05/27 12:11:15;;;;;;;10.93;1.13;;;18.80;65.50;;;;;;5031844;28;20107;-44
2022/05/27 12:13:49;;;;;;;11.10;1.58;;;18.60;64.40;;;;;;5032133;28;20091;-44
2022/05/27 12:16:27;;;;;;;12.18;1.70;;;18.50;64.80;;;;;;5030155;28;20519;-44
2022/05/27 12:19:10;;;;;;;14.93;1.85;;;18.30;65.60;;;;;;5032171;28;20056;-44
2022/05/27 12:21:43;;;;;;;10.13;1.58;;;18.30;66.20;;;;;;5032021;28;20053;-44
2022/05/27 12:24:56;;;;;;;9.00;1.25;;;18.40;66.80;;;;;;5031745;28;20390;-43
2022/05/27 12:27:23;;;;;;;8.00;1.48;;;18.40;67.20;;;;;;4989557;28;20384;-44
2022/05/27 12:29:50;;;;;;;8.73;1.52;;;18.20;66.60;;;;;;4989288;28;20181;-44
2022/05/27 12:32:19;;;;;;;8.43;1.48;;;18.20;67.20;;;;;;5009441;28;20080;-45
2022/05/27 12:34:49;;;;;;;10.38;1.58;;;18.10;67.30;;;;;;5028464;28;20118;-48
2022/05/27 12:37:19;;;;;;;10.48;0.93;;;18.20;68.20;;;;;;5006771;28;20099;-46
2022/05/27 12:39:47;;;;;;;12.35;1.83;;;18.40;68.10;;;;;;5007976;28;20576;-48
2022/05/27 12:42:25;;;;;;;10.30;1.35;;;18.70;68.10;;;;;;5027898;28;20038;-45
2022/05/27 12:44:51;;;;;;;10.73;1.40;;;18.80;67.70;;;;;;5027055;28;20531;-45
2022/05/27 12:47:28;;;;;;;10.90;1.25;;;18.60;66.30;;;;;;5028249;28;20041;-42
2022/05/27 12:50:11;;;;;;;7.50;1.30;;;18.60;66.50;;;;;;5029142;28;20051;-44
2022/05/27 12:52:37;;;;;;;10.55;1.40;;;18.70;67.70;;;;;;5027272;28;20095;-42
2022/05/27 12:55:10;;;;;;;12.23;1.33;;;18.90;67.30;;;;;;5027680;28;20435;-41
2022/05/27 13:03:33;;;;;;;6.55;1.23;;;19.20;66.40;;;;;;5027415;28;20443;-44
2022/05/27 13:06:26;;;;;;;10.52;1.50;;;19.40;67.00;;;;;;5027695;28;20057;-48
2022/05/27 13:09:11;;;;;;;7.22;1.30;;;19.40;65.80;;;;;;5031406;28;20099;-46
2022/05/27 13:11:37;;;;;;;9.23;1.17;;;19.40;65.50;;;;;;5031950;28;20088;-48
2022/05/27 13:14:03;;;;;;;11.20;2.15;;;19.30;65.30;;;;;;5032209;28;20045;-49
2022/05/27 13:16:33;;;;;;;8.50;1.50;;;17.60;64.00;;;;;;5030687;28;20037;-48
2022/05/27 13:19:07;;;;;;;7.82;1.10;;;19.00;64.80;;;;;;5031513;28;20046;-53
2022/05/27 13:21:44;;;;;;;7.43;0.93;;;18.70;65.60;;;;;;5031311;28;20581;-55
2022/05/27 13:24:13;;;;;;;11.20;1.10;;;18.40;66.40;;;;;;5031646;28;20787;-45
2022/05/27 13:26:45;;;;;;;12.07;1.90;;;18.30;67.70;;;;;;5030465;28;20055;-44
2022/05/27 13:29:28;;;;;;;9.05;1.23;;;18.20;67.00;;;;;;5031017;28;20055;-43
2022/05/27 13:32:21;;;;;;;14.25;1.63;;;18.10;67.10;;;;;;5031099;28;20041;-43
2022/05/27 13:35:07;;;;;;;10.88;1.10;;;18.00;67.50;;;;;;5026820;28;20060;-42
2022/05/27 13:37:38;;;;;;;8.77;1.08;;;17.70;68.00;;;;;;5030859;28;20046;-42
2022/05/27 13:40:28;;;;;;;7.63;1.50;;;17.60;68.10;;;;;;5030635;28;20039;-43
2022/05/27 13:43:01;;;;;;;8.63;1.00;;;17.60;68.60;;;;;;5030302;28;20151;-42
2022/05/27 13:46:06;;;;;;;6.88;1.50;;;17.50;69.50;;;;;;5029500;28;20485;-47
2022/05/27 13:48:38;;;;;;;7.50;1.05;;;17.50;69.50;;;;;;5030397;28;20742;-47
2022/05/27 13:51:10;;;;;;;5.57;0.60;;;17.40;70.00;;;;;;5029368;28;20750;-49